createdAt,value
2023-03-22T00:00:12.333Z,1004.55
2023-03-22T00:01:12.346Z,1004.57
2023-03-22T00:02:12.357Z,1004.44
2023-03-22T00:03:12.296Z,1004.51
2023-03-22T00:04:12.312Z,1004.50
2023-03-22T00:05:12.281Z,1004.44
2023-03-22T00:06:12.259Z,1004.50
2023-03-22T00:07:12.269Z,1004.49
2023-03-22T00:08:12.246Z,1004.49
2023-03-22T00:09:12.230Z,1004.44
2023-03-22T00:10:12.219Z,1004.48
2023-03-22T00:11:12.225Z,1004.48
2023-03-22T00:12:12.209Z,1004.42
2023-03-22T00:13:12.198Z,1004.50
2023-03-22T00:14:12.175Z,1004.41
2023-03-22T00:15:12.163Z,1004.41
2023-03-22T00:16:12.176Z,1004.42
2023-03-22T00:17:12.157Z,1004.39
2023-03-22T00:18:12.133Z,1004.45
2023-03-22T00:19:12.115Z,1004.44
2023-03-22T00:20:12.120Z,1004.40
2023-03-22T00:21:12.103Z,1004.37
2023-03-22T00:22:12.113Z,1004.41
2023-03-22T00:23:12.081Z,1004.39
2023-03-22T00:24:12.062Z,1004.40
2023-03-22T00:25:12.045Z,1004.37
2023-03-22T00:26:12.070Z,1004.33
2023-03-22T00:27:12.086Z,1004.34
2023-03-22T00:28:12.029Z,1004.33
2023-03-22T00:29:12.014Z,1004.31
2023-03-22T00:30:12.031Z,1004.31
2023-03-22T00:31:12.052Z,1004.35
2023-03-22T00:32:12.006Z,1004.28
2023-03-22T00:33:11.986Z,1004.40
2023-03-22T00:34:11.977Z,1004.29
2023-03-22T00:35:12.095Z,1004.35
2023-03-22T00:36:11.966Z,1004.32
2023-03-22T00:37:11.918Z,1004.31
2023-03-22T00:38:11.939Z,1004.39
2023-03-22T00:39:11.907Z,1004.37
2023-03-22T00:40:11.893Z,1004.36
2023-03-22T00:41:11.899Z,1004.33
2023-03-22T00:42:11.872Z,1004.36
2023-03-22T00:43:11.863Z,1004.31
2023-03-22T00:44:11.868Z,1004.36
2023-03-22T00:45:11.840Z,1004.37
2023-03-22T00:46:11.867Z,1004.37
2023-03-22T00:47:11.810Z,1004.36
2023-03-22T00:48:11.966Z,1004.38
2023-03-22T00:49:11.792Z,1004.38
2023-03-22T00:50:11.806Z,1004.30
2023-03-22T00:51:11.814Z,1004.31
2023-03-22T00:52:11.767Z,1004.25
2023-03-22T00:53:11.758Z,1004.21
2023-03-22T00:54:11.741Z,1004.27
2023-03-22T00:55:11.750Z,1004.21
2023-03-22T00:56:11.711Z,1004.17
2023-03-22T00:57:11.737Z,1004.22
2023-03-22T00:58:11.694Z,1004.13
2023-03-22T00:59:11.681Z,1004.19
2023-03-22T01:00:11.674Z,1004.11
2023-03-22T01:01:11.697Z,1004.14
2023-03-22T01:02:11.653Z,1004.09
2023-03-22T01:03:11.674Z,1004.06
2023-03-22T01:04:11.632Z,1004.08
2023-03-22T01:05:11.640Z,1004.03
2023-03-22T01:06:11.666Z,1004.04
2023-03-22T01:07:11.597Z,1004.04
2023-03-22T01:08:11.583Z,1004.01
2023-03-22T01:09:11.580Z,1004.02
2023-03-22T01:10:11.589Z,1004.02
2023-03-22T01:11:11.583Z,1004.00
2023-03-22T01:12:11.539Z,1003.99
2023-03-22T01:13:11.555Z,1004.00
2023-03-22T01:14:11.521Z,1003.94
2023-03-22T01:15:11.501Z,1003.94
2023-03-22T01:16:11.649Z,1003.95
2023-03-22T01:17:11.481Z,1003.87
2023-03-22T01:18:11.471Z,1003.95
2023-03-22T01:19:11.458Z,1003.91
2023-03-22T01:20:11.451Z,1003.98
2023-03-22T01:21:11.457Z,1003.95
2023-03-22T01:22:11.430Z,1003.99
2023-03-22T01:23:11.411Z,1003.97
2023-03-22T01:24:11.406Z,1003.92
2023-03-22T01:25:11.395Z,1003.97
2023-03-22T01:26:11.386Z,1003.98
2023-03-22T01:27:11.401Z,1003.92
2023-03-22T01:28:11.369Z,1003.95
2023-03-22T01:29:11.349Z,1003.90
2023-03-22T01:30:11.344Z,1003.90
2023-03-22T01:31:11.363Z,1003.91
2023-03-22T01:32:11.311Z,1003.87
2023-03-22T01:33:11.325Z,1003.79
2023-03-22T01:34:11.290Z,1003.80
2023-03-22T01:35:11.289Z,1003.86
2023-03-22T01:36:11.272Z,1003.85
2023-03-22T01:37:11.260Z,1003.84
2023-03-22T01:38:11.270Z,1003.84
2023-03-22T01:39:11.243Z,1003.87
2023-03-22T01:40:11.232Z,1003.86
2023-03-22T01:41:11.215Z,1003.76
2023-03-22T01:42:11.213Z,1003.81
2023-03-22T01:43:11.225Z,1003.75
2023-03-22T01:44:11.186Z,1003.75
2023-03-22T01:45:11.198Z,1003.75
2023-03-22T01:46:11.194Z,1003.78
2023-03-22T01:47:11.157Z,1003.72
2023-03-22T01:48:11.227Z,1003.74
2023-03-22T01:49:11.214Z,1003.71
2023-03-22T01:50:11.131Z,1003.74
2023-03-22T01:51:11.118Z,1003.68
2023-03-22T01:52:11.107Z,1003.72
2023-03-22T01:53:11.117Z,1003.66
2023-03-22T01:54:11.104Z,1003.65
2023-03-22T01:55:11.071Z,1003.59
2023-03-22T01:56:11.069Z,1003.63
2023-03-22T01:57:11.048Z,1003.56
2023-03-22T01:58:11.069Z,1003.55
2023-03-22T01:59:11.027Z,1003.50
2023-03-22T02:00:11.024Z,1003.54
2023-03-22T02:01:11.047Z,1003.50
2023-03-22T02:02:11.011Z,1003.52
2023-03-22T02:03:10.989Z,1003.46
2023-03-22T02:04:10.998Z,1003.48
2023-03-22T02:05:10.958Z,1003.49
2023-03-22T02:06:10.958Z,1003.43
2023-03-22T02:07:10.941Z,1003.46
2023-03-22T02:08:10.936Z,1003.50
2023-03-22T02:09:10.923Z,1003.47
2023-03-22T02:10:10.927Z,1003.47
2023-03-22T02:11:10.900Z,1003.45
2023-03-22T02:12:10.888Z,1003.42
2023-03-22T02:13:10.876Z,1003.42
2023-03-22T02:14:10.888Z,1003.37
2023-03-22T02:15:10.872Z,1003.31
2023-03-22T02:16:10.917Z,1003.40
2023-03-22T02:17:10.830Z,1003.32
2023-03-22T02:18:10.818Z,1003.39
2023-03-22T02:19:10.802Z,1003.39
2023-03-22T02:20:10.839Z,1003.32
2023-03-22T02:21:10.811Z,1003.33
2023-03-22T02:22:10.779Z,1003.35
2023-03-22T02:23:10.771Z,1003.35
2023-03-22T02:24:10.767Z,1003.34
2023-03-22T02:25:10.764Z,1003.34
2023-03-22T02:26:10.771Z,1003.36
2023-03-22T02:27:10.719Z,1003.33
2023-03-22T02:28:10.714Z,1003.34
2023-03-22T02:29:10.705Z,1003.33
2023-03-22T02:30:10.693Z,1003.33
2023-03-22T02:31:10.734Z,1003.25
2023-03-22T02:32:10.670Z,1003.18
2023-03-22T02:33:10.659Z,1003.12
2023-03-22T02:34:10.648Z,1003.12
2023-03-22T02:35:10.632Z,1003.10
2023-03-22T02:36:10.622Z,1003.15
2023-03-22T02:37:10.631Z,1003.12
2023-03-22T02:38:10.624Z,1003.07
2023-03-22T02:39:10.592Z,1003.11
2023-03-22T02:40:10.600Z,1003.13
2023-03-22T02:41:10.566Z,1003.15
2023-03-22T02:42:10.561Z,1003.15
2023-03-22T02:43:10.561Z,1003.18
2023-03-22T02:44:10.544Z,1003.17
2023-03-22T02:45:10.521Z,1003.13
2023-03-22T02:46:10.606Z,1003.14
2023-03-22T02:47:10.503Z,1003.20
2023-03-22T02:48:10.499Z,1003.18
2023-03-22T02:49:10.479Z,1003.13
2023-03-22T02:50:10.462Z,1003.17
2023-03-22T02:51:10.460Z,1003.12
2023-03-22T02:52:10.479Z,1003.12
2023-03-22T02:53:10.432Z,1003.06
2023-03-22T02:54:10.422Z,1003.04
2023-03-22T02:55:10.409Z,1003.01
2023-03-22T02:56:10.402Z,1002.99
2023-03-22T02:57:10.389Z,1002.96
2023-03-22T02:58:10.392Z,1002.93
2023-03-22T02:59:10.374Z,1002.92
2023-03-22T03:00:10.355Z,1002.89
2023-03-22T03:01:10.455Z,1002.86
2023-03-22T03:02:10.392Z,1002.90
2023-03-22T03:03:10.320Z,1002.92
2023-03-22T03:04:10.323Z,1002.92
2023-03-22T03:05:10.320Z,1002.88
2023-03-22T03:06:10.292Z,1002.87
2023-03-22T03:07:10.274Z,1002.90
2023-03-22T03:08:10.271Z,1002.91
2023-03-22T03:09:10.274Z,1002.88
2023-03-22T03:10:10.255Z,1002.88
2023-03-22T03:11:10.241Z,1002.84
2023-03-22T03:12:10.231Z,1002.82
2023-03-22T03:13:10.222Z,1002.82
2023-03-22T03:14:10.232Z,1002.78
2023-03-22T03:15:10.196Z,1002.78
2023-03-22T03:16:10.230Z,1002.81
2023-03-22T03:17:10.162Z,1002.86
2023-03-22T03:18:10.153Z,1002.88
2023-03-22T03:19:10.164Z,1002.87
2023-03-22T03:20:10.132Z,1002.89
2023-03-22T03:21:10.122Z,1002.89
2023-03-22T03:22:10.105Z,1002.81
2023-03-22T03:23:10.094Z,1002.76
2023-03-22T03:24:10.115Z,1002.78
2023-03-22T03:25:10.075Z,1002.83
2023-03-22T03:26:10.073Z,1002.78
2023-03-22T03:27:10.060Z,1002.80
2023-03-22T03:28:10.055Z,1002.79
2023-03-22T03:29:10.034Z,1002.77
2023-03-22T03:30:10.051Z,1002.81
2023-03-22T03:31:10.021Z,1002.77
2023-03-22T03:32:10.000Z,1002.75
2023-03-22T03:33:10.001Z,1002.80
2023-03-22T03:34:09.974Z,1002.78
2023-03-22T03:35:09.994Z,1002.79
2023-03-22T03:36:09.962Z,1002.77
2023-03-22T03:37:09.948Z,1002.79
2023-03-22T03:38:09.952Z,1002.79
2023-03-22T03:39:09.936Z,1002.76
2023-03-22T03:40:09.909Z,1002.74
2023-03-22T03:41:09.925Z,1002.76
2023-03-22T03:42:09.888Z,1002.76
2023-03-22T03:43:09.885Z,1002.76
2023-03-22T03:44:09.874Z,1002.70
2023-03-22T03:45:09.855Z,1002.72
2023-03-22T03:46:09.938Z,1002.70
2023-03-22T03:47:09.841Z,1002.72
2023-03-22T03:48:09.824Z,1002.67
2023-03-22T03:49:09.809Z,1002.68
2023-03-22T03:50:09.796Z,1002.66
2023-03-22T03:51:09.808Z,1002.66
2023-03-22T03:52:09.777Z,1002.66
2023-03-22T03:53:09.769Z,1002.64
2023-03-22T03:54:09.901Z,1002.62
2023-03-22T03:55:09.770Z,1002.64
2023-03-22T03:56:09.751Z,1002.61
2023-03-22T03:57:09.733Z,1002.63
2023-03-22T03:58:09.707Z,1002.60
2023-03-22T03:59:09.722Z,1002.59
2023-03-22T04:00:09.685Z,1002.60
2023-03-22T04:01:09.690Z,1002.58
2023-03-22T04:02:09.681Z,1002.53
2023-03-22T04:03:09.649Z,1002.59
2023-03-22T04:04:09.764Z,1002.58
2023-03-22T04:05:30.762Z,1002.64
2023-03-22T04:06:09.729Z,1002.60
2023-03-22T04:07:09.612Z,1002.61
2023-03-22T04:08:09.592Z,1002.66
2023-03-22T04:09:09.658Z,1002.64
2023-03-22T04:10:09.593Z,1002.65
2023-03-22T04:11:09.564Z,1002.64
2023-03-22T04:12:09.585Z,1002.65
2023-03-22T04:13:09.556Z,1002.65
2023-03-22T04:14:09.534Z,1002.61
2023-03-22T04:15:09.546Z,1002.62
2023-03-22T04:16:09.511Z,1002.66
2023-03-22T04:17:09.502Z,1002.60
2023-03-22T04:18:09.490Z,1002.60
2023-03-22T04:19:09.515Z,1002.55
2023-03-22T04:20:09.495Z,1002.56
2023-03-22T04:21:09.473Z,1002.52
2023-03-22T04:22:09.447Z,1002.55
2023-03-22T04:23:09.453Z,1002.50
2023-03-22T04:24:09.435Z,1002.52
2023-03-22T04:25:09.406Z,1002.47
2023-03-22T04:26:09.451Z,1002.44
2023-03-22T04:27:09.387Z,1002.42
2023-03-22T04:28:09.383Z,1002.38
2023-03-22T04:29:09.419Z,1002.41
2023-03-22T04:30:09.383Z,1002.41
2023-03-22T04:31:09.432Z,1002.44
2023-03-22T04:32:09.334Z,1002.46
2023-03-22T04:33:09.392Z,1002.43
2023-03-22T04:34:09.335Z,1002.46
2023-03-22T04:35:09.296Z,1002.37
2023-03-22T04:36:09.285Z,1002.41
2023-03-22T04:37:09.295Z,1002.40
2023-03-22T04:38:09.262Z,1002.43
2023-03-22T04:39:09.252Z,1002.37
2023-03-22T04:40:09.244Z,1002.32
2023-03-22T04:41:09.226Z,1002.38
2023-03-22T04:42:09.223Z,1002.40
2023-03-22T04:43:09.221Z,1002.33
2023-03-22T04:44:09.210Z,1002.40
2023-03-22T04:45:09.186Z,1002.36
2023-03-22T04:46:09.234Z,1002.38
2023-03-22T04:47:09.166Z,1002.34
2023-03-22T04:48:09.217Z,1002.39
2023-03-22T04:49:09.165Z,1002.38
2023-03-22T04:50:09.185Z,1002.38
2023-03-22T04:51:09.120Z,1002.35
2023-03-22T04:52:09.107Z,1002.35
2023-03-22T04:53:09.095Z,1002.36
2023-03-22T04:54:09.090Z,1002.40
2023-03-22T04:55:09.095Z,1002.33
2023-03-22T04:57:26.218Z,1002.27
2023-03-22T04:58:26.207Z,1002.29
2023-03-22T04:59:26.188Z,1002.26
2023-03-22T05:00:26.206Z,1002.31
2023-03-22T05:01:26.197Z,1002.26
2023-03-22T05:02:26.184Z,1002.27
2023-03-22T05:03:26.167Z,1002.25
2023-03-22T05:04:26.138Z,1002.29
2023-03-22T05:05:26.163Z,1002.27
2023-03-22T05:06:26.117Z,1002.22
2023-03-22T05:07:26.100Z,1002.23
2023-03-22T05:08:26.088Z,1002.27
2023-03-22T05:09:26.077Z,1002.28
2023-03-22T05:10:26.067Z,1002.25
2023-03-22T05:11:26.079Z,1002.22
2023-03-22T05:12:26.040Z,1002.20
2023-03-22T05:13:26.069Z,1002.19
2023-03-22T05:14:26.092Z,1002.22
2023-03-22T05:15:26.017Z,1002.20
2023-03-22T05:16:26.037Z,1002.28
2023-03-22T05:17:26.128Z,1002.24
2023-03-22T05:18:25.981Z,1002.22
2023-03-22T05:19:25.969Z,1002.23
2023-03-22T05:20:25.958Z,1002.25
2023-03-22T05:21:25.942Z,1002.27
2023-03-22T05:22:25.932Z,1002.22
2023-03-22T05:23:25.961Z,1002.21
2023-03-22T05:24:25.913Z,1002.22
2023-03-22T05:25:25.897Z,1002.23
2023-03-22T05:26:25.894Z,1002.20
2023-03-22T05:27:25.871Z,1002.19
2023-03-22T05:28:25.872Z,1002.21
2023-03-22T05:29:25.878Z,1002.22
2023-03-22T05:30:25.841Z,1002.19
2023-03-22T05:31:25.866Z,1002.24
2023-03-22T05:32:25.819Z,1002.20
2023-03-22T05:33:25.830Z,1002.22
2023-03-22T05:34:25.822Z,1002.23
2023-03-22T05:35:25.822Z,1002.23
2023-03-22T05:36:25.782Z,1002.25
2023-03-22T05:37:25.764Z,1002.24
2023-03-22T05:38:25.773Z,1002.28
2023-03-22T05:39:25.745Z,1002.23
2023-03-22T05:40:25.755Z,1002.31
2023-03-22T05:41:25.725Z,1002.20
2023-03-22T05:42:25.712Z,1002.25
2023-03-22T05:43:25.717Z,1002.25
2023-03-22T05:44:25.695Z,1002.24
2023-03-22T05:45:25.683Z,1002.24
2023-03-22T05:46:25.811Z,1002.21
2023-03-22T05:47:25.668Z,1002.24
2023-03-22T05:48:25.649Z,1002.24
2023-03-22T05:49:25.638Z,1002.29
2023-03-22T05:50:25.652Z,1002.28
2023-03-22T05:51:25.621Z,1002.18
2023-03-22T05:52:25.599Z,1002.26
2023-03-22T05:53:25.618Z,1002.29
2023-03-22T05:54:25.569Z,1002.32
2023-03-22T05:55:25.580Z,1002.23
2023-03-22T05:56:25.576Z,1002.22
2023-03-22T05:57:25.559Z,1002.24
2023-03-22T05:58:25.537Z,1002.22
2023-03-22T05:59:25.530Z,1002.23
2023-03-22T06:00:25.526Z,1002.24
2023-03-22T06:01:25.532Z,1002.19
2023-03-22T06:02:25.491Z,1002.20
2023-03-22T06:03:25.579Z,1002.21
2023-03-22T06:04:25.474Z,1002.19
2023-03-22T06:05:25.469Z,1002.23
2023-03-22T06:06:25.474Z,1002.20
2023-03-22T06:07:25.439Z,1002.22
2023-03-22T06:08:26.616Z,1002.17
2023-03-22T06:09:25.444Z,1002.10
2023-03-22T06:10:25.404Z,1002.11
2023-03-22T06:11:25.414Z,1002.11
2023-03-22T06:12:25.384Z,1002.12
2023-03-22T06:13:25.475Z,1002.15
2023-03-22T06:14:25.362Z,1002.16
2023-03-22T06:15:25.348Z,1002.11
2023-03-22T06:16:25.362Z,1002.10
2023-03-22T06:17:25.373Z,1002.10
2023-03-22T06:18:25.314Z,1002.09
2023-03-22T06:19:25.313Z,1002.08
2023-03-22T06:20:25.294Z,1002.13
2023-03-22T06:21:25.286Z,1002.12
2023-03-22T06:22:25.265Z,1002.09
2023-03-22T06:23:25.391Z,1002.13
2023-03-22T06:24:25.246Z,1002.05
2023-03-22T06:25:25.248Z,1001.96
2023-03-22T06:26:25.227Z,1001.94
2023-03-22T06:27:25.244Z,1001.95
2023-03-22T06:28:25.226Z,1001.98
2023-03-22T06:29:25.196Z,1002.00
2023-03-22T06:30:25.240Z,1001.98
2023-03-22T06:31:25.171Z,1001.96
2023-03-22T06:32:25.155Z,1002.01
2023-03-22T06:33:25.186Z,1002.02
2023-03-22T06:34:25.154Z,1001.93
2023-03-22T06:35:25.149Z,1002.00
2023-03-22T06:36:25.108Z,1001.95
2023-03-22T06:37:25.100Z,1001.96
2023-03-22T06:38:25.108Z,1001.99
2023-03-22T06:39:25.079Z,1001.93
2023-03-22T06:40:25.059Z,1001.91
2023-03-22T06:41:25.058Z,1001.97
2023-03-22T06:42:25.052Z,1001.89
2023-03-22T06:43:25.066Z,1001.89
2023-03-22T06:44:25.018Z,1001.87
2023-03-22T06:45:25.007Z,1001.94
2023-03-22T06:46:25.028Z,1001.93
2023-03-22T06:47:24.986Z,1001.92
2023-03-22T06:48:25.052Z,1001.94
2023-03-22T06:49:24.988Z,1001.92
2023-03-22T06:50:24.957Z,1001.85
2023-03-22T06:51:24.945Z,1001.87
2023-03-22T06:52:24.955Z,1001.78
2023-03-22T06:53:24.926Z,1001.83
2023-03-22T06:54:24.908Z,1001.80
2023-03-22T06:55:24.900Z,1001.86
2023-03-22T06:56:24.876Z,1001.83
2023-03-22T06:57:24.882Z,1001.80
2023-03-22T06:58:24.882Z,1001.77
2023-03-22T06:59:24.868Z,1001.80
2023-03-22T07:00:24.848Z,1001.75
2023-03-22T07:01:24.923Z,1001.81
2023-03-22T07:02:24.817Z,1001.75
2023-03-22T07:03:24.848Z,1001.79
2023-03-22T07:04:24.834Z,1001.76
2023-03-22T07:05:24.798Z,1001.78
2023-03-22T07:06:24.776Z,1001.77
2023-03-22T07:07:24.774Z,1001.77
2023-03-22T07:08:24.759Z,1001.76
2023-03-22T07:09:24.779Z,1001.75
2023-03-22T07:10:24.729Z,1001.71
2023-03-22T07:11:24.719Z,1001.75
2023-03-22T07:12:24.721Z,1001.81
2023-03-22T07:13:24.717Z,1001.80
2023-03-22T07:14:24.688Z,1001.78
2023-03-22T07:15:24.866Z,1001.81
2023-03-22T07:16:24.753Z,1001.72
2023-03-22T07:17:24.665Z,1001.81
2023-03-22T07:18:24.680Z,1001.75
2023-03-22T07:19:24.637Z,1001.75
2023-03-22T07:20:24.639Z,1001.80
2023-03-22T07:21:24.612Z,1001.76
2023-03-22T07:22:24.600Z,1001.73
2023-03-22T07:23:24.620Z,1001.71
2023-03-22T07:24:24.605Z,1001.66
2023-03-22T07:25:24.570Z,1001.62
2023-03-22T07:26:24.557Z,1001.57
2023-03-22T07:27:24.547Z,1001.58
2023-03-22T07:28:24.547Z,1001.65
2023-03-22T07:29:24.522Z,1001.67
2023-03-22T07:30:24.531Z,1001.70
2023-03-22T07:31:24.521Z,1001.68
2023-03-22T07:32:24.572Z,1001.68
2023-03-22T07:33:24.545Z,1001.61
2023-03-22T07:34:24.477Z,1001.62
2023-03-22T07:35:26.766Z,1001.66
2023-03-22T07:36:24.607Z,1001.59
2023-03-22T07:37:24.433Z,1001.62
2023-03-22T07:38:24.496Z,1001.62
2023-03-22T07:39:24.745Z,1001.69
2023-03-22T07:40:24.428Z,1001.69
2023-03-22T07:41:24.403Z,1001.70
2023-03-22T07:42:24.378Z,1001.72
2023-03-22T07:43:24.388Z,1001.70
2023-03-22T07:44:24.399Z,1001.70
2023-03-22T07:45:24.424Z,1001.67
2023-03-22T07:46:24.371Z,1001.60
2023-03-22T07:47:39.448Z,1001.69
2023-03-22T07:48:25.378Z,1001.65
2023-03-22T07:49:24.343Z,1001.63
2023-03-22T07:50:24.320Z,1001.64
2023-03-22T07:51:24.300Z,1001.60
2023-03-22T07:52:24.280Z,1001.56
2023-03-22T07:53:24.292Z,1001.58
2023-03-22T07:54:33.321Z,1001.56
2023-03-22T07:55:25.276Z,1001.61
2023-03-22T07:56:24.235Z,1001.66
2023-03-22T07:57:24.224Z,1001.60
2023-03-22T07:58:24.214Z,1001.65
2023-03-22T07:59:24.211Z,1001.57
2023-03-22T08:00:24.200Z,1001.61
2023-03-22T08:01:24.204Z,1001.59
2023-03-22T08:02:24.222Z,1001.61
2023-03-22T08:03:24.198Z,1001.53
2023-03-22T08:04:24.146Z,1001.56
2023-03-22T08:05:24.144Z,1001.62
2023-03-22T08:06:24.154Z,1001.62
2023-03-22T08:07:24.117Z,1001.56
2023-03-22T08:08:24.104Z,1001.53
2023-03-22T08:09:24.178Z,1001.51
2023-03-22T08:10:24.083Z,1001.53
2023-03-22T08:11:24.117Z,1001.57
2023-03-22T08:12:24.081Z,1001.48
2023-03-22T08:13:24.064Z,1001.48
2023-03-22T08:14:34.041Z,1001.47
2023-03-22T08:15:25.026Z,1001.52
2023-03-22T08:16:24.064Z,1001.45
2023-03-22T08:17:24.005Z,1001.56
2023-03-22T08:18:23.987Z,1001.47
2023-03-22T08:19:23.995Z,1001.49
2023-03-22T08:20:23.968Z,1001.46
2023-03-22T08:21:23.960Z,1001.55
2023-03-22T08:22:23.967Z,1001.43
2023-03-22T08:23:38.503Z,1001.50
2023-03-22T08:24:24.939Z,1001.46
2023-03-22T08:25:23.914Z,1001.47
2023-03-22T08:26:24.060Z,1001.41
2023-03-22T08:27:23.907Z,1001.41
2023-03-22T08:28:23.882Z,1001.44
2023-03-22T08:29:23.881Z,1001.34
2023-03-22T08:30:23.905Z,1001.39
2023-03-22T08:31:23.964Z,1001.44
2023-03-22T08:32:23.874Z,1001.34
2023-03-22T08:33:23.824Z,1001.42
2023-03-22T08:34:23.807Z,1001.57
2023-03-22T08:35:23.825Z,1001.44
2023-03-22T08:36:23.805Z,1001.53
2023-03-22T08:37:23.777Z,1001.51
2023-03-22T08:38:23.788Z,1001.53
2023-03-22T08:39:24.709Z,1001.71
2023-03-22T08:40:23.850Z,1001.44
2023-03-22T08:41:23.749Z,1001.45
2023-03-22T08:42:23.733Z,1001.43
2023-03-22T08:43:23.750Z,1001.55
2023-03-22T08:44:23.754Z,1001.42
2023-03-22T08:45:23.709Z,1001.51
2023-03-22T08:46:23.721Z,1001.64
2023-03-22T08:47:23.713Z,1001.49
2023-03-22T08:48:23.855Z,1001.39
2023-03-22T08:49:23.654Z,1001.44
2023-03-22T08:50:23.626Z,1001.45
2023-03-22T08:51:23.626Z,1001.41
2023-03-22T08:52:23.610Z,1001.41
2023-03-22T08:53:23.618Z,1001.37
2023-03-22T08:54:23.607Z,1001.38
2023-03-22T08:55:23.580Z,1001.45
2023-03-22T08:56:23.561Z,1001.33
2023-03-22T08:57:23.558Z,1001.45
2023-03-22T08:58:23.538Z,1001.45
2023-03-22T08:59:23.556Z,1001.41
2023-03-22T09:00:23.522Z,1001.42
2023-03-22T09:01:23.798Z,1001.43
2023-03-22T09:02:23.556Z,1001.39
2023-03-22T09:03:23.503Z,1001.47
2023-03-22T09:04:23.488Z,1001.59
2023-03-22T09:05:23.609Z,1001.66
2023-03-22T09:06:23.454Z,1001.35
2023-03-22T09:07:23.448Z,1001.32
2023-03-22T09:08:23.431Z,1001.43
2023-03-22T09:09:23.452Z,1001.39
2023-03-22T09:10:23.404Z,1001.38
2023-03-22T09:11:23.462Z,1001.35
2023-03-22T09:12:23.402Z,1001.35
2023-03-22T09:13:23.668Z,1001.34
2023-03-22T09:14:23.369Z,1001.31
2023-03-22T09:15:23.362Z,1001.30
2023-03-22T09:16:23.405Z,1001.37
2023-03-22T09:17:23.329Z,1001.40
2023-03-22T09:18:23.354Z,1001.32
2023-03-22T09:19:23.303Z,1001.22
2023-03-22T09:20:23.312Z,1001.22
2023-03-22T09:21:23.326Z,1001.27
2023-03-22T09:22:23.291Z,1001.19
2023-03-22T09:23:23.382Z,1001.16
2023-03-22T09:24:23.249Z,1001.24
2023-03-22T09:25:23.236Z,1001.12
2023-03-22T09:26:23.259Z,1001.16
2023-03-22T09:27:23.234Z,1001.14
2023-03-22T09:28:23.224Z,1001.15
2023-03-22T09:29:23.192Z,1001.28
2023-03-22T09:30:23.202Z,1001.16
2023-03-22T09:31:23.238Z,1001.18
2023-03-22T09:32:23.228Z,1001.14
2023-03-22T09:33:23.172Z,1001.15
2023-03-22T09:34:23.134Z,1001.12
2023-03-22T09:35:23.192Z,1001.17
2023-03-22T09:36:23.114Z,1001.21
2023-03-22T09:37:23.100Z,1001.18
2023-03-22T09:38:23.113Z,1001.22
2023-03-22T09:39:23.103Z,1001.24
2023-03-22T09:40:23.164Z,1001.33
2023-03-22T09:41:23.061Z,1001.14
2023-03-22T09:42:23.087Z,1001.22
2023-03-22T09:43:23.034Z,1001.26
2023-03-22T09:44:23.052Z,1001.06
2023-03-22T09:45:23.030Z,1001.22
2023-03-22T09:46:23.019Z,1001.34
2023-03-22T09:47:24.462Z,1001.21
2023-03-22T09:48:23.163Z,1001.21
2023-03-22T09:49:22.994Z,1001.31
2023-03-22T09:50:22.978Z,1001.22
2023-03-22T09:51:22.946Z,1001.32
2023-03-22T09:52:23.042Z,1001.15
2023-03-22T09:53:22.930Z,1001.12
2023-03-22T09:54:22.947Z,1001.18
2023-03-22T09:55:22.923Z,1001.22
2023-03-22T09:56:22.886Z,1001.11
2023-03-22T09:57:22.885Z,1001.10
2023-03-22T09:58:22.904Z,1001.13
2023-03-22T09:59:22.885Z,1001.07
2023-03-22T10:00:23.048Z,1001.20
2023-03-22T10:01:22.995Z,1001.20
2023-03-22T10:02:22.862Z,1001.14
2023-03-22T10:03:22.837Z,1001.22
2023-03-22T10:04:22.868Z,1001.21
2023-03-22T10:05:22.812Z,1001.16
2023-03-22T10:06:22.780Z,1001.13
2023-03-22T10:07:22.783Z,1001.27
2023-03-22T10:08:22.760Z,1001.19
2023-03-22T10:09:22.829Z,1001.14
2023-03-22T10:10:22.787Z,1001.18
2023-03-22T10:11:22.726Z,1001.21
2023-03-22T10:12:22.729Z,1001.25
2023-03-22T10:13:22.711Z,1001.32
2023-03-22T10:14:22.687Z,1001.06
2023-03-22T10:15:22.709Z,1001.11
2023-03-22T10:16:22.674Z,1001.09
2023-03-22T10:17:22.768Z,1001.29
2023-03-22T10:18:22.640Z,1001.28
2023-03-22T10:19:22.636Z,1001.32
2023-03-22T10:20:22.648Z,1001.25
2023-03-22T10:21:22.617Z,1001.16
2023-03-22T10:22:22.597Z,1001.28
2023-03-22T10:23:22.589Z,1001.09
2023-03-22T10:24:22.579Z,1001.16
2023-03-22T10:25:22.629Z,1001.22
2023-03-22T10:26:22.659Z,1001.11
2023-03-22T10:27:22.541Z,1001.18
2023-03-22T10:28:22.532Z,1001.07
2023-03-22T10:29:22.518Z,1001.08
2023-03-22T10:30:22.512Z,1001.11
2023-03-22T10:31:22.592Z,1001.13
2023-03-22T10:32:22.494Z,1001.17
2023-03-22T10:33:22.484Z,1001.12
2023-03-22T10:34:22.469Z,1001.04
2023-03-22T10:35:22.480Z,1001.11
2023-03-22T10:36:22.478Z,1001.14
2023-03-22T10:37:22.439Z,1001.44
2023-03-22T10:38:22.437Z,1001.12
2023-03-22T10:39:22.402Z,1001.08
2023-03-22T10:40:22.400Z,1001.09
2023-03-22T10:41:22.411Z,1001.07
2023-03-22T10:42:22.407Z,1001.35
2023-03-22T10:43:22.381Z,1001.20
2023-03-22T10:44:22.362Z,1001.19
2023-03-22T10:45:22.336Z,1001.21
2023-03-22T10:46:22.357Z,1001.09
2023-03-22T10:47:22.349Z,1001.12
2023-03-22T10:48:22.352Z,1001.08
2023-03-22T10:49:22.295Z,1001.01
2023-03-22T10:50:22.294Z,1001.01
2023-03-22T10:51:22.276Z,1000.99
2023-03-22T10:52:22.294Z,1000.86
2023-03-22T10:53:22.256Z,1000.93
2023-03-22T10:54:22.527Z,1000.89
2023-03-22T10:55:22.232Z,1001.01
2023-03-22T10:56:22.237Z,1000.90
2023-03-22T10:57:22.214Z,1000.82
2023-03-22T10:58:22.206Z,1000.86
2023-03-22T10:59:22.212Z,1001.00
2023-03-22T11:00:22.245Z,1000.90
2023-03-22T11:01:22.257Z,1000.79
2023-03-22T11:02:22.446Z,1000.80
2023-03-22T11:03:22.151Z,1000.83
2023-03-22T11:04:22.143Z,1000.87
2023-03-22T11:05:22.142Z,1001.00
2023-03-22T11:06:22.113Z,1000.80
2023-03-22T11:07:22.124Z,1000.88
2023-03-22T11:08:22.085Z,1000.87
2023-03-22T11:09:22.082Z,1000.97
2023-03-22T11:10:22.182Z,1000.84
2023-03-22T11:11:22.081Z,1000.93
2023-03-22T11:12:22.044Z,1000.88
2023-03-22T11:13:22.065Z,1001.00
2023-03-22T11:14:22.024Z,1000.88
2023-03-22T11:15:22.036Z,1000.94
2023-03-22T11:16:22.067Z,1000.93
2023-03-22T11:17:21.986Z,1001.02
2023-03-22T11:18:22.009Z,1000.87
2023-03-22T11:19:21.986Z,1000.98
2023-03-22T11:20:22.076Z,1000.83
2023-03-22T11:21:21.944Z,1000.83
2023-03-22T11:22:21.941Z,1000.96
2023-03-22T11:23:21.924Z,1000.97
2023-03-22T11:24:22.065Z,1000.93
2023-03-22T11:25:21.900Z,1000.88
2023-03-22T11:26:21.916Z,1000.95
2023-03-22T11:27:22.003Z,1001.06
2023-03-22T11:28:21.918Z,1000.99
2023-03-22T11:29:21.890Z,1000.96
2023-03-22T11:30:29.674Z,1000.96
2023-03-22T11:31:21.886Z,1000.97
2023-03-22T11:32:21.835Z,1000.93
2023-03-22T11:33:21.810Z,1000.98
2023-03-22T11:34:21.830Z,1000.84
2023-03-22T11:35:21.904Z,1001.02
2023-03-22T11:36:21.773Z,1000.99
2023-03-22T11:37:21.772Z,1000.85
2023-03-22T11:38:21.762Z,1000.97
2023-03-22T11:39:21.737Z,1001.01
2023-03-22T11:40:21.775Z,1000.98
2023-03-22T11:41:21.724Z,1000.95
2023-03-22T11:42:21.738Z,1000.93
2023-03-22T11:43:21.743Z,1000.83
2023-03-22T11:44:21.690Z,1000.86
2023-03-22T11:45:21.726Z,1000.92
2023-03-22T11:46:21.728Z,1001.00
2023-03-22T11:47:21.649Z,1000.89
2023-03-22T11:48:21.730Z,1000.88
2023-03-22T11:49:21.630Z,1000.89
2023-03-22T11:50:21.641Z,1000.86
2023-03-22T11:51:21.612Z,1000.88
2023-03-22T11:52:21.631Z,1000.81
2023-03-22T11:53:21.592Z,1000.86
2023-03-22T11:54:21.590Z,1001.06
2023-03-22T11:55:21.589Z,1000.80
2023-03-22T11:56:21.569Z,1000.83
2023-03-22T11:57:21.565Z,1000.83
2023-03-22T11:58:23.047Z,1000.95
2023-03-22T11:59:21.523Z,1000.83
2023-03-22T12:00:21.577Z,1000.94
2023-03-22T12:01:21.503Z,1000.80
2023-03-22T12:02:21.553Z,1000.84
2023-03-22T12:03:21.614Z,1000.93
2023-03-22T12:04:21.485Z,1000.87
2023-03-22T12:05:21.588Z,1000.73
2023-03-22T12:06:21.500Z,1000.80